sensor_id;sensor_type;location;lat;lon;timestamp;temperature;humidity
45060;DHT22;30799;49.060;9.312;2023-02-28T00:00:36;18.70;58.40
45060;DHT22;30799;49.060;9.312;2023-02-28T00:03:03;18.70;58.20
45060;DHT22;30799;49.060;9.312;2023-02-28T00:05:30;18.70;58.40
45060;DHT22;30799;49.060;9.312;2023-02-28T00:07:56;18.70;58.50
45060;DHT22;30799;49.060;9.312;2023-02-28T00:10:27;18.70;58.40
45060;DHT22;30799;49.060;9.312;2023-02-28T00:12:56;18.70;58.50
45060;DHT22;30799;49.060;9.312;2023-02-28T00:15:24;18.70;58.50
45060;DHT22;30799;49.060;9.312;2023-02-28T00:17:51;18.70;58.50
45060;DHT22;30799;49.060;9.312;2023-02-28T00:20:18;18.70;58.50
45060;DHT22;30799;49.060;9.312;2023-02-28T00:22:48;18.70;58.40
45060;DHT22;30799;49.060;9.312;2023-02-28T00:25:19;18.70;58.50
45060;DHT22;30799;49.060;9.312;2023-02-28T00:27:46;18.70;58.40
45060;DHT22;30799;49.060;9.312;2023-02-28T00:30:19;18.70;58.40
45060;DHT22;30799;49.060;9.312;2023-02-28T00:32:46;18.70;58.40
45060;DHT22;30799;49.060;9.312;2023-02-28T00:35:13;18.70;58.50
45060;DHT22;30799;49.060;9.312;2023-02-28T00:37:40;18.60;58.60
45060;DHT22;30799;49.060;9.312;2023-02-28T00:40:07;18.70;58.60
45060;DHT22;30799;49.060;9.312;2023-02-28T00:42:35;18.70;58.50
45060;DHT22;30799;49.060;9.312;2023-02-28T00:45:03;18.70;58.70
45060;DHT22;30799;49.060;9.312;2023-02-28T00:47:31;18.70;58.60
45060;DHT22;30799;49.060;9.312;2023-02-28T00:49:59;18.70;58.70
45060;DHT22;30799;49.060;9.312;2023-02-28T00:52:26;18.70;58.70
45060;DHT22;30799;49.060;9.312;2023-02-28T00:54:53;18.70;58.80
45060;DHT22;30799;49.060;9.312;2023-02-28T00:57:19;18.70;58.70
45060;DHT22;30799;49.060;9.312;2023-02-28T00:59:46;18.70;58.70
45060;DHT22;30799;49.060;9.312;2023-02-28T01:02:13;18.70;58.70
45060;DHT22;30799;49.060;9.312;2023-02-28T01:04:39;18.70;58.70
45060;DHT22;30799;49.060;9.312;2023-02-28T01:07:06;18.70;58.70
45060;DHT22;30799;49.060;9.312;2023-02-28T01:09:33;18.70;58.90
45060;DHT22;30799;49.060;9.312;2023-02-28T01:11:59;18.70;58.90
45060;DHT22;30799;49.060;9.312;2023-02-28T01:14:26;18.70;58.90
45060;DHT22;30799;49.060;9.312;2023-02-28T01:16:53;18.70;58.70
45060;DHT22;30799;49.060;9.312;2023-02-28T01:19:19;18.70;58.90
45060;DHT22;30799;49.060;9.312;2023-02-28T01:21:46;18.70;58.90
45060;DHT22;30799;49.060;9.312;2023-02-28T01:24:13;18.70;58.90
45060;DHT22;30799;49.060;9.312;2023-02-28T01:26:39;18.70;58.90
45060;DHT22;30799;49.060;9.312;2023-02-28T01:29:06;18.70;59.00
45060;DHT22;30799;49.060;9.312;2023-02-28T01:31:33;18.70;59.10
45060;DHT22;30799;49.060;9.312;2023-02-28T01:33:59;18.70;59.20
45060;DHT22;30799;49.060;9.312;2023-02-28T01:36:26;18.70;59.10
45060;DHT22;30799;49.060;9.312;2023-02-28T01:38:53;18.70;59.10
45060;DHT22;30799;49.060;9.312;2023-02-28T01:41:24;18.70;59.00
45060;DHT22;30799;49.060;9.312;2023-02-28T01:43:53;18.70;59.00
45060;DHT22;30799;49.060;9.312;2023-02-28T01:46:20;18.70;59.00
45060;DHT22;30799;49.060;9.312;2023-02-28T01:51:41;18.70;59.20
45060;DHT22;30799;49.060;9.312;2023-02-28T01:54:14;18.70;59.30
45060;DHT22;30799;49.060;9.312;2023-02-28T01:57:02;18.70;59.20
45060;DHT22;30799;49.060;9.312;2023-02-28T01:59:36;18.70;59.30
45060;DHT22;30799;49.060;9.312;2023-02-28T02:02:06;18.60;59.30
45060;DHT22;30799;49.060;9.312;2023-02-28T02:04:42;18.70;59.40
45060;DHT22;30799;49.060;9.312;2023-02-28T02:07:13;18.70;59.30
45060;DHT22;30799;49.060;9.312;2023-02-28T02:09:40;18.70;59.40
45060;DHT22;30799;49.060;9.312;2023-02-28T02:12:37;18.70;59.50
45060;DHT22;30799;49.060;9.312;2023-02-28T02:15:17;18.70;59.40
45060;DHT22;30799;49.060;9.312;2023-02-28T02:17:49;18.70;59.60
45060;DHT22;30799;49.060;9.312;2023-02-28T02:23:58;18.70;59.50
45060;DHT22;30799;49.060;9.312;2023-02-28T02:34:42;18.70;59.60
45060;DHT22;30799;49.060;9.312;2023-02-28T02:37:24;18.70;59.70
45060;DHT22;30799;49.060;9.312;2023-02-28T02:42:29;18.70;59.90
45060;DHT22;30799;49.060;9.312;2023-02-28T02:45:09;18.70;59.90
45060;DHT22;30799;49.060;9.312;2023-02-28T02:47:38;18.70;60.10
45060;DHT22;30799;49.060;9.312;2023-02-28T02:50:11;18.70;60.20
45060;DHT22;30799;49.060;9.312;2023-02-28T02:52:44;18.70;60.00
45060;DHT22;30799;49.060;9.312;2023-02-28T02:55:13;18.70;60.10
45060;DHT22;30799;49.060;9.312;2023-02-28T02:57:59;18.70;60.40
45060;DHT22;30799;49.060;9.312;2023-02-28T03:00:34;18.70;60.30
45060;DHT22;30799;49.060;9.312;2023-02-28T03:03:02;18.80;60.20
45060;DHT22;30799;49.060;9.312;2023-02-28T03:05:39;18.70;60.30
45060;DHT22;30799;49.060;9.312;2023-02-28T03:08:08;18.70;60.20
45060;DHT22;30799;49.060;9.312;2023-02-28T03:10:37;18.70;61.30
45060;DHT22;30799;49.060;9.312;2023-02-28T03:13:33;18.70;60.60
45060;DHT22;30799;49.060;9.312;2023-02-28T03:19:34;18.70;60.90
45060;DHT22;30799;49.060;9.312;2023-02-28T03:25:03;18.70;61.90
45060;DHT22;30799;49.060;9.312;2023-02-28T03:30:26;18.70;61.60
45060;DHT22;30799;49.060;9.312;2023-02-28T03:33:01;18.70;61.20
45060;DHT22;30799;49.060;9.312;2023-02-28T03:35:36;18.70;61.20
45060;DHT22;30799;49.060;9.312;2023-02-28T03:38:12;18.70;61.00
45060;DHT22;30799;49.060;9.312;2023-02-28T03:40:46;18.70;60.90
45060;DHT22;30799;49.060;9.312;2023-02-28T03:43:20;18.70;61.00
45060;DHT22;30799;49.060;9.312;2023-02-28T03:45:49;18.70;61.00
45060;DHT22;30799;49.060;9.312;2023-02-28T03:48:27;18.70;61.20
45060;DHT22;30799;49.060;9.312;2023-02-28T03:50:58;18.70;61.30
45060;DHT22;30799;49.060;9.312;2023-02-28T03:53:29;18.70;61.30
45060;DHT22;30799;49.060;9.312;2023-02-28T03:56:09;18.70;61.20
45060;DHT22;30799;49.060;9.312;2023-02-28T03:58:42;18.70;61.40
45060;DHT22;30799;49.060;9.312;2023-02-28T04:01:16;18.70;61.30
45060;DHT22;30799;49.060;9.312;2023-02-28T04:03:45;18.80;61.70
45060;DHT22;30799;49.060;9.312;2023-02-28T04:06:18;18.70;61.70
45060;DHT22;30799;49.060;9.312;2023-02-28T04:08:45;18.70;61.70
45060;DHT22;30799;49.060;9.312;2023-02-28T04:13:50;18.70;62.20
45060;DHT22;30799;49.060;9.312;2023-02-28T04:16:17;18.70;62.10
45060;DHT22;30799;49.060;9.312;2023-02-28T04:19:01;18.70;62.20
45060;DHT22;30799;49.060;9.312;2023-02-28T04:21:33;18.70;62.20
45060;DHT22;30799;49.060;9.312;2023-02-28T04:24:00;18.80;62.60
45060;DHT22;30799;49.060;9.312;2023-02-28T04:26:35;18.70;60.90
45060;DHT22;30799;49.060;9.312;2023-02-28T04:29:04;18.70;59.90
45060;DHT22;30799;49.060;9.312;2023-02-28T04:31:31;18.70;59.70
45060;DHT22;30799;49.060;9.312;2023-02-28T04:33:59;18.80;59.60
45060;DHT22;30799;49.060;9.312;2023-02-28T04:36:26;18.80;59.40
45060;DHT22;30799;49.060;9.312;2023-02-28T04:38:53;18.80;59.50
45060;DHT22;30799;49.060;9.312;2023-02-28T04:41:20;18.70;59.40
45060;DHT22;30799;49.060;9.312;2023-02-28T04:43:47;18.70;59.40
45060;DHT22;30799;49.060;9.312;2023-02-28T04:46:14;18.70;60.10
45060;DHT22;30799;49.060;9.312;2023-02-28T04:48:41;18.80;59.50
45060;DHT22;30799;49.060;9.312;2023-02-28T04:51:10;18.70;59.30
45060;DHT22;30799;49.060;9.312;2023-02-28T04:53:39;18.70;59.40
45060;DHT22;30799;49.060;9.312;2023-02-28T04:56:07;18.70;59.40
45060;DHT22;30799;49.060;9.312;2023-02-28T04:58:34;18.70;59.30
45060;DHT22;30799;49.060;9.312;2023-02-28T05:01:16;18.70;59.30
45060;DHT22;30799;49.060;9.312;2023-02-28T05:03:44;18.70;59.50
45060;DHT22;30799;49.060;9.312;2023-02-28T05:06:12;18.70;59.50
45060;DHT22;30799;49.060;9.312;2023-02-28T05:08:39;18.70;59.70
45060;DHT22;30799;49.060;9.312;2023-02-28T05:11:19;18.70;59.70
45060;DHT22;30799;49.060;9.312;2023-02-28T05:13:48;18.70;59.70
45060;DHT22;30799;49.060;9.312;2023-02-28T05:16:14;18.80;59.80
45060;DHT22;30799;49.060;9.312;2023-02-28T05:18:41;18.70;59.80
45060;DHT22;30799;49.060;9.312;2023-02-28T05:21:41;18.70;60.00
45060;DHT22;30799;49.060;9.312;2023-02-28T05:24:14;18.80;60.10
45060;DHT22;30799;49.060;9.312;2023-02-28T05:26:42;18.70;60.10
45060;DHT22;30799;49.060;9.312;2023-02-28T05:29:10;18.70;60.30
45060;DHT22;30799;49.060;9.312;2023-02-28T05:31:37;18.70;60.40
45060;DHT22;30799;49.060;9.312;2023-02-28T05:34:04;18.70;60.80
45060;DHT22;30799;49.060;9.312;2023-02-28T05:36:31;18.80;61.30
45060;DHT22;30799;49.060;9.312;2023-02-28T05:38:57;18.80;61.40
45060;DHT22;30799;49.060;9.312;2023-02-28T05:41:24;18.70;61.60
45060;DHT22;30799;49.060;9.312;2023-02-28T05:43:52;18.70;61.70
45060;DHT22;30799;49.060;9.312;2023-02-28T05:46:19;18.70;62.20
45060;DHT22;30799;49.060;9.312;2023-02-28T05:48:47;18.70;62.40
45060;DHT22;30799;49.060;9.312;2023-02-28T05:51:15;18.80;62.40
45060;DHT22;30799;49.060;9.312;2023-02-28T05:53:42;18.80;62.80
45060;DHT22;30799;49.060;9.312;2023-02-28T05:56:09;18.80;63.20
45060;DHT22;30799;49.060;9.312;2023-02-28T05:58:35;18.70;63.10
45060;DHT22;30799;49.060;9.312;2023-02-28T06:01:41;18.80;63.40
45060;DHT22;30799;49.060;9.312;2023-02-28T06:04:08;18.80;62.00
45060;DHT22;30799;49.060;9.312;2023-02-28T06:06:48;18.80;61.00
45060;DHT22;30799;49.060;9.312;2023-02-28T06:09:16;18.80;60.80
45060;DHT22;30799;49.060;9.312;2023-02-28T06:11:42;18.70;60.80
45060;DHT22;30799;49.060;9.312;2023-02-28T06:14:17;18.80;60.40
45060;DHT22;30799;49.060;9.312;2023-02-28T06:16:44;18.80;60.60
45060;DHT22;30799;49.060;9.312;2023-02-28T06:19:11;18.70;60.90
45060;DHT22;30799;49.060;9.312;2023-02-28T06:21:38;18.70;61.10
45060;DHT22;30799;49.060;9.312;2023-02-28T06:24:05;18.80;61.40
45060;DHT22;30799;49.060;9.312;2023-02-28T06:26:32;18.80;62.10
45060;DHT22;30799;49.060;9.312;2023-02-28T06:28:59;18.80;62.10
45060;DHT22;30799;49.060;9.312;2023-02-28T06:31:27;18.80;61.80
45060;DHT22;30799;49.060;9.312;2023-02-28T06:33:55;18.80;61.30
45060;DHT22;30799;49.060;9.312;2023-02-28T06:36:23;18.70;61.20
45060;DHT22;30799;49.060;9.312;2023-02-28T06:38:49;18.70;61.30
45060;DHT22;30799;49.060;9.312;2023-02-28T06:41:25;18.70;61.60
45060;DHT22;30799;49.060;9.312;2023-02-28T06:43:53;18.70;61.20
45060;DHT22;30799;49.060;9.312;2023-02-28T06:46:19;18.70;61.60
45060;DHT22;30799;49.060;9.312;2023-02-28T06:48:46;18.80;61.70
45060;DHT22;30799;49.060;9.312;2023-02-28T06:51:17;18.70;62.20
45060;DHT22;30799;49.060;9.312;2023-02-28T06:53:44;18.80;62.20
45060;DHT22;30799;49.060;9.312;2023-02-28T06:56:13;18.70;62.50
45060;DHT22;30799;49.060;9.312;2023-02-28T06:58:46;18.80;62.80
45060;DHT22;30799;49.060;9.312;2023-02-28T07:01:15;18.70;63.00
45060;DHT22;30799;49.060;9.312;2023-02-28T07:03:42;18.80;62.80
45060;DHT22;30799;49.060;9.312;2023-02-28T07:06:09;18.80;62.90
45060;DHT22;30799;49.060;9.312;2023-02-28T07:08:36;18.80;63.10
45060;DHT22;30799;49.060;9.312;2023-02-28T07:11:03;18.80;63.40
45060;DHT22;30799;49.060;9.312;2023-02-28T07:13:30;18.80;63.00
45060;DHT22;30799;49.060;9.312;2023-02-28T07:15:59;18.80;63.20
45060;DHT22;30799;49.060;9.312;2023-02-28T07:18:26;18.80;63.00
45060;DHT22;30799;49.060;9.312;2023-02-28T07:20:54;18.80;62.90
45060;DHT22;30799;49.060;9.312;2023-02-28T07:23:21;18.70;63.30
45060;DHT22;30799;49.060;9.312;2023-02-28T07:25:49;18.70;63.30
45060;DHT22;30799;49.060;9.312;2023-02-28T07:28:16;18.80;63.90
45060;DHT22;30799;49.060;9.312;2023-02-28T07:30:43;18.80;63.70
45060;DHT22;30799;49.060;9.312;2023-02-28T07:33:09;18.80;64.40
45060;DHT22;30799;49.060;9.312;2023-02-28T07:35:36;18.90;64.90
45060;DHT22;30799;49.060;9.312;2023-02-28T07:38:03;18.80;65.20
45060;DHT22;30799;49.060;9.312;2023-02-28T07:40:30;18.80;65.50
45060;DHT22;30799;49.060;9.312;2023-02-28T07:42:59;18.80;66.00
45060;DHT22;30799;49.060;9.312;2023-02-28T07:45:26;18.80;67.00
45060;DHT22;30799;49.060;9.312;2023-02-28T07:47:52;18.80;68.60
45060;DHT22;30799;49.060;9.312;2023-02-28T07:50:19;18.80;65.50
45060;DHT22;30799;49.060;9.312;2023-02-28T07:52:46;18.80;63.80
45060;DHT22;30799;49.060;9.312;2023-02-28T07:55:13;18.80;62.80
45060;DHT22;30799;49.060;9.312;2023-02-28T07:57:40;18.80;66.70
45060;DHT22;30799;49.060;9.312;2023-02-28T08:00:09;18.80;65.50
45060;DHT22;30799;49.060;9.312;2023-02-28T08:02:36;18.80;66.00
45060;DHT22;30799;49.060;9.312;2023-02-28T08:05:04;18.70;63.70
45060;DHT22;30799;49.060;9.312;2023-02-28T08:07:30;18.80;67.60
45060;DHT22;30799;49.060;9.312;2023-02-28T08:09:57;18.90;65.70
45060;DHT22;30799;49.060;9.312;2023-02-28T08:12:24;18.80;63.60
45060;DHT22;30799;49.060;9.312;2023-02-28T08:14:50;18.80;62.30
45060;DHT22;30799;49.060;9.312;2023-02-28T08:17:17;18.80;64.60
45060;DHT22;30799;49.060;9.312;2023-02-28T08:19:47;18.80;63.40
45060;DHT22;30799;49.060;9.312;2023-02-28T08:22:13;18.80;65.20
45060;DHT22;30799;49.060;9.312;2023-02-28T08:24:43;18.80;67.40
45060;DHT22;30799;49.060;9.312;2023-02-28T08:27:10;18.70;66.20
45060;DHT22;30799;49.060;9.312;2023-02-28T08:29:37;18.80;61.80
45060;DHT22;30799;49.060;9.312;2023-02-28T08:32:05;18.80;62.00
45060;DHT22;30799;49.060;9.312;2023-02-28T08:34:40;18.80;63.50
45060;DHT22;30799;49.060;9.312;2023-02-28T08:37:06;18.70;64.60
45060;DHT22;30799;49.060;9.312;2023-02-28T08:39:36;18.80;64.70
45060;DHT22;30799;49.060;9.312;2023-02-28T08:42:04;18.80;65.30
45060;DHT22;30799;49.060;9.312;2023-02-28T08:44:33;18.80;66.30
45060;DHT22;30799;49.060;9.312;2023-02-28T08:47:00;18.80;67.00
45060;DHT22;30799;49.060;9.312;2023-02-28T08:49:27;18.70;55.90
45060;DHT22;30799;49.060;9.312;2023-02-28T08:51:53;18.80;56.50
45060;DHT22;30799;49.060;9.312;2023-02-28T08:54:21;18.80;56.10
45060;DHT22;30799;49.060;9.312;2023-02-28T08:56:49;18.80;56.40
45060;DHT22;30799;49.060;9.312;2023-02-28T08:59:16;18.80;56.20
45060;DHT22;30799;49.060;9.312;2023-02-28T09:01:42;18.80;56.30
45060;DHT22;30799;49.060;9.312;2023-02-28T09:04:10;18.80;56.60
45060;DHT22;30799;49.060;9.312;2023-02-28T09:06:40;18.80;56.70
45060;DHT22;30799;49.060;9.312;2023-02-28T09:09:07;18.80;56.50
45060;DHT22;30799;49.060;9.312;2023-02-28T09:11:34;18.80;57.10
45060;DHT22;30799;49.060;9.312;2023-02-28T09:14:02;18.80;56.70
45060;DHT22;30799;49.060;9.312;2023-02-28T09:16:31;18.80;57.30
45060;DHT22;30799;49.060;9.312;2023-02-28T09:18:59;18.80;57.40
45060;DHT22;30799;49.060;9.312;2023-02-28T09:21:26;18.80;57.50
45060;DHT22;30799;49.060;9.312;2023-02-28T09:23:53;18.80;57.60
45060;DHT22;30799;49.060;9.312;2023-02-28T09:26:23;18.80;57.60
45060;DHT22;30799;49.060;9.312;2023-02-28T09:28:51;18.90;57.60
45060;DHT22;30799;49.060;9.312;2023-02-28T09:31:23;18.80;58.30
45060;DHT22;30799;49.060;9.312;2023-02-28T09:33:53;18.80;58.40
45060;DHT22;30799;49.060;9.312;2023-02-28T09:36:21;18.80;59.00
45060;DHT22;30799;49.060;9.312;2023-02-28T09:38:57;18.80;58.70
45060;DHT22;30799;49.060;9.312;2023-02-28T09:41:25;18.80;59.20
45060;DHT22;30799;49.060;9.312;2023-02-28T09:44:00;18.80;59.30
45060;DHT22;30799;49.060;9.312;2023-02-28T09:46:42;18.80;60.00
45060;DHT22;30799;49.060;9.312;2023-02-28T09:49:14;18.80;59.00
45060;DHT22;30799;49.060;9.312;2023-02-28T09:54:21;18.80;59.90
45060;DHT22;30799;49.060;9.312;2023-02-28T09:59:42;18.80;60.70
45060;DHT22;30799;49.060;9.312;2023-02-28T10:05:13;18.80;60.30
45060;DHT22;30799;49.060;9.312;2023-02-28T10:10:27;18.80;60.10
45060;DHT22;30799;49.060;9.312;2023-02-28T10:12:57;18.80;60.70
45060;DHT22;30799;49.060;9.312;2023-02-28T10:15:27;18.80;60.50
45060;DHT22;30799;49.060;9.312;2023-02-28T10:18:06;18.80;60.30
45060;DHT22;30799;49.060;9.312;2023-02-28T10:20:39;18.80;60.40
45060;DHT22;30799;49.060;9.312;2023-02-28T10:23:20;18.80;61.20
45060;DHT22;30799;49.060;9.312;2023-02-28T10:25:58;18.80;60.30
45060;DHT22;30799;49.060;9.312;2023-02-28T10:28:26;18.80;59.20
45060;DHT22;30799;49.060;9.312;2023-02-28T10:30:55;18.80;58.90
45060;DHT22;30799;49.060;9.312;2023-02-28T10:33:31;18.80;58.90
45060;DHT22;30799;49.060;9.312;2023-02-28T10:35:58;18.80;58.70
45060;DHT22;30799;49.060;9.312;2023-02-28T10:38:37;18.80;60.20
45060;DHT22;30799;49.060;9.312;2023-02-28T10:41:07;18.80;62.60
45060;DHT22;30799;49.060;9.312;2023-02-28T10:43:37;18.80;62.30
45060;DHT22;30799;49.060;9.312;2023-02-28T10:51:08;18.80;63.30
45060;DHT22;30799;49.060;9.312;2023-02-28T10:53:47;18.80;63.60
45060;DHT22;30799;49.060;9.312;2023-02-28T10:56:27;18.80;64.20
45060;DHT22;30799;49.060;9.312;2023-02-28T10:59:03;18.80;65.60
45060;DHT22;30799;49.060;9.312;2023-02-28T11:01:46;18.80;66.00
45060;DHT22;30799;49.060;9.312;2023-02-28T11:07:00;18.80;67.40
45060;DHT22;30799;49.060;9.312;2023-02-28T11:11:55;18.80;67.90
45060;DHT22;30799;49.060;9.312;2023-02-28T11:14:26;18.80;68.30
45060;DHT22;30799;49.060;9.312;2023-02-28T11:16:54;18.80;68.40
45060;DHT22;30799;49.060;9.312;2023-02-28T11:19:26;18.80;71.60
45060;DHT22;30799;49.060;9.312;2023-02-28T11:21:57;18.80;71.30
45060;DHT22;30799;49.060;9.312;2023-02-28T11:24:42;18.70;76.00
45060;DHT22;30799;49.060;9.312;2023-02-28T11:27:46;18.90;61.10
45060;DHT22;30799;49.060;9.312;2023-02-28T11:30:32;18.80;60.00
45060;DHT22;30799;49.060;9.312;2023-02-28T11:33:22;18.80;60.20
45060;DHT22;30799;49.060;9.312;2023-02-28T11:35:52;18.80;60.00
45060;DHT22;30799;49.060;9.312;2023-02-28T11:38:19;18.80;59.60
45060;DHT22;30799;49.060;9.312;2023-02-28T11:43:25;18.80;60.90
45060;DHT22;30799;49.060;9.312;2023-02-28T11:48:47;18.80;60.70
45060;DHT22;30799;49.060;9.312;2023-02-28T11:51:26;18.80;61.60
45060;DHT22;30799;49.060;9.312;2023-02-28T12:05:34;18.80;59.30
45060;DHT22;30799;49.060;9.312;2023-02-28T12:08:15;18.80;59.20
45060;DHT22;30799;49.060;9.312;2023-02-28T12:13:26;18.80;62.30
45060;DHT22;30799;49.060;9.312;2023-02-28T12:16:18;18.80;64.30
45060;DHT22;30799;49.060;9.312;2023-02-28T12:27:12;18.80;64.90
45060;DHT22;30799;49.060;9.312;2023-02-28T12:30:02;18.80;65.40
45060;DHT22;30799;49.060;9.312;2023-02-28T12:32:41;18.80;71.80
45060;DHT22;30799;49.060;9.312;2023-02-28T12:37:43;18.80;63.00
45060;DHT22;30799;49.060;9.312;2023-02-28T12:40:23;18.90;64.90
45060;DHT22;30799;49.060;9.312;2023-02-28T12:43:03;18.80;64.50
45060;DHT22;30799;49.060;9.312;2023-02-28T12:46:07;18.80;65.60
45060;DHT22;30799;49.060;9.312;2023-02-28T12:48:55;18.80;64.20
45060;DHT22;30799;49.060;9.312;2023-02-28T12:51:24;18.80;65.80
45060;DHT22;30799;49.060;9.312;2023-02-28T12:56:54;18.80;67.10
45060;DHT22;30799;49.060;9.312;2023-02-28T13:00:03;18.80;67.60
45060;DHT22;30799;49.060;9.312;2023-02-28T13:10:50;18.80;69.30
45060;DHT22;30799;49.060;9.312;2023-02-28T13:13:26;18.80;69.90
45060;DHT22;30799;49.060;9.312;2023-02-28T13:21:03;18.80;62.80
45060;DHT22;30799;49.060;9.312;2023-02-28T13:23:58;18.80;63.10
45060;DHT22;30799;49.060;9.312;2023-02-28T13:31:26;18.80;63.70
45060;DHT22;30799;49.060;9.312;2023-02-28T13:36:26;18.80;63.70
45060;DHT22;30799;49.060;9.312;2023-02-28T13:39:01;18.80;63.50
45060;DHT22;30799;49.060;9.312;2023-02-28T13:44:12;18.80;65.20
45060;DHT22;30799;49.060;9.312;2023-02-28T13:49:29;18.80;59.30
45060;DHT22;30799;49.060;9.312;2023-02-28T14:05:22;18.80;59.50
45060;DHT22;30799;49.060;9.312;2023-02-28T14:07:57;18.90;60.00
45060;DHT22;30799;49.060;9.312;2023-02-28T14:10:35;18.80;59.50
45060;DHT22;30799;49.060;9.312;2023-02-28T14:13:13;18.80;59.60
45060;DHT22;30799;49.060;9.312;2023-02-28T14:15:44;18.80;59.50
45060;DHT22;30799;49.060;9.312;2023-02-28T14:20:46;18.80;59.80
45060;DHT22;30799;49.060;9.312;2023-02-28T14:26:03;18.80;59.70
45060;DHT22;30799;49.060;9.312;2023-02-28T14:28:39;18.80;59.40
45060;DHT22;30799;49.060;9.312;2023-02-28T14:31:25;18.90;59.50
45060;DHT22;30799;49.060;9.312;2023-02-28T14:34:02;18.80;59.50
45060;DHT22;30799;49.060;9.312;2023-02-28T14:36:36;18.80;59.60
45060;DHT22;30799;49.060;9.312;2023-02-28T14:39:15;18.80;59.60
45060;DHT22;30799;49.060;9.312;2023-02-28T14:41:43;18.80;59.90
45060;DHT22;30799;49.060;9.312;2023-02-28T14:44:15;18.90;59.90
45060;DHT22;30799;49.060;9.312;2023-02-28T14:46:42;18.90;60.30
45060;DHT22;30799;49.060;9.312;2023-02-28T14:49:36;18.90;59.60
45060;DHT22;30799;49.060;9.312;2023-02-28T14:54:37;18.80;60.70
45060;DHT22;30799;49.060;9.312;2023-02-28T14:57:05;18.90;61.20
45060;DHT22;30799;49.060;9.312;2023-02-28T14:59:34;18.90;61.40
45060;DHT22;30799;49.060;9.312;2023-02-28T15:04:53;18.90;60.50
45060;DHT22;30799;49.060;9.312;2023-02-28T15:07:20;18.90;61.00
45060;DHT22;30799;49.060;9.312;2023-02-28T15:10:22;18.90;61.80
45060;DHT22;30799;49.060;9.312;2023-02-28T15:15:45;18.90;61.60
45060;DHT22;30799;49.060;9.312;2023-02-28T15:21:22;18.90;61.60
45060;DHT22;30799;49.060;9.312;2023-02-28T15:23:54;18.90;62.40
45060;DHT22;30799;49.060;9.312;2023-02-28T15:26:26;18.90;61.90
45060;DHT22;30799;49.060;9.312;2023-02-28T15:28:59;18.90;62.00
45060;DHT22;30799;49.060;9.312;2023-02-28T15:31:31;18.90;62.30
45060;DHT22;30799;49.060;9.312;2023-02-28T15:34:19;18.90;62.30
45060;DHT22;30799;49.060;9.312;2023-02-28T15:36:50;18.80;62.50
45060;DHT22;30799;49.060;9.312;2023-02-28T15:39:25;18.90;62.90
45060;DHT22;30799;49.060;9.312;2023-02-28T15:42:18;18.80;63.20
45060;DHT22;30799;49.060;9.312;2023-02-28T15:44:45;18.90;64.20
45060;DHT22;30799;49.060;9.312;2023-02-28T15:47:38;18.90;63.80
45060;DHT22;30799;49.060;9.312;2023-02-28T15:50:10;18.90;63.80
45060;DHT22;30799;49.060;9.312;2023-02-28T15:52:42;18.90;64.30
45060;DHT22;30799;49.060;9.312;2023-02-28T15:55:23;18.90;64.50
45060;DHT22;30799;49.060;9.312;2023-02-28T15:57:53;18.90;64.70
45060;DHT22;30799;49.060;9.312;2023-02-28T16:00:23;18.90;65.30
45060;DHT22;30799;49.060;9.312;2023-02-28T16:02:50;18.90;67.20
45060;DHT22;30799;49.060;9.312;2023-02-28T16:05:27;18.90;69.40
45060;DHT22;30799;49.060;9.312;2023-02-28T16:08:01;18.70;74.20
45060;DHT22;30799;49.060;9.312;2023-02-28T16:10:36;18.90;69.00
45060;DHT22;30799;49.060;9.312;2023-02-28T16:13:04;18.90;69.80
45060;DHT22;30799;49.060;9.312;2023-02-28T16:15:38;18.90;73.90
45060;DHT22;30799;49.060;9.312;2023-02-28T16:18:11;18.90;73.90
45060;DHT22;30799;49.060;9.312;2023-02-28T16:20:38;18.90;68.10
45060;DHT22;30799;49.060;9.312;2023-02-28T16:23:05;18.90;69.80
45060;DHT22;30799;49.060;9.312;2023-02-28T16:28:01;18.70;71.10
45060;DHT22;30799;49.060;9.312;2023-02-28T16:30:29;18.70;76.70
45060;DHT22;30799;49.060;9.312;2023-02-28T16:32:59;18.80;71.20
45060;DHT22;30799;49.060;9.312;2023-02-28T16:35:25;18.80;69.30
45060;DHT22;30799;49.060;9.312;2023-02-28T16:37:52;18.90;68.90
45060;DHT22;30799;49.060;9.312;2023-02-28T16:40:24;18.80;71.30
45060;DHT22;30799;49.060;9.312;2023-02-28T16:43:00;18.80;72.20
45060;DHT22;30799;49.060;9.312;2023-02-28T16:45:31;18.80;68.40
45060;DHT22;30799;49.060;9.312;2023-02-28T16:47:57;18.80;62.60
45060;DHT22;30799;49.060;9.312;2023-02-28T16:50:29;18.80;61.30
45060;DHT22;30799;49.060;9.312;2023-02-28T16:52:56;18.80;60.80
45060;DHT22;30799;49.060;9.312;2023-02-28T16:55:24;18.80;59.90
45060;DHT22;30799;49.060;9.312;2023-02-28T16:57:59;18.80;59.90
45060;DHT22;30799;49.060;9.312;2023-02-28T17:00:27;18.70;60.10
45060;DHT22;30799;49.060;9.312;2023-02-28T17:02:55;18.80;60.40
45060;DHT22;30799;49.060;9.312;2023-02-28T17:05:23;18.80;60.20
45060;DHT22;30799;49.060;9.312;2023-02-28T17:07:49;18.80;60.10
45060;DHT22;30799;49.060;9.312;2023-02-28T17:10:19;18.70;61.40
45060;DHT22;30799;49.060;9.312;2023-02-28T17:12:46;18.70;60.40
45060;DHT22;30799;49.060;9.312;2023-02-28T17:15:14;18.70;62.20
45060;DHT22;30799;49.060;9.312;2023-02-28T17:17:42;18.80;61.00
45060;DHT22;30799;49.060;9.312;2023-02-28T17:20:17;18.80;60.60
45060;DHT22;30799;49.060;9.312;2023-02-28T17:22:44;18.70;62.80
45060;DHT22;30799;49.060;9.312;2023-02-28T17:25:11;18.70;62.40
45060;DHT22;30799;49.060;9.312;2023-02-28T17:27:38;18.80;61.50
45060;DHT22;30799;49.060;9.312;2023-02-28T17:30:19;18.70;62.10
45060;DHT22;30799;49.060;9.312;2023-02-28T17:32:46;18.80;63.20
45060;DHT22;30799;49.060;9.312;2023-02-28T17:35:13;18.70;63.50
45060;DHT22;30799;49.060;9.312;2023-02-28T17:37:40;18.80;62.10
45060;DHT22;30799;49.060;9.312;2023-02-28T17:40:13;18.70;61.50
45060;DHT22;30799;49.060;9.312;2023-02-28T17:42:39;18.70;62.70
45060;DHT22;30799;49.060;9.312;2023-02-28T17:45:06;18.70;62.70
45060;DHT22;30799;49.060;9.312;2023-02-28T17:47:33;18.70;61.60
45060;DHT22;30799;49.060;9.312;2023-02-28T17:50:00;18.70;61.70
45060;DHT22;30799;49.060;9.312;2023-02-28T17:52:26;18.70;61.90
45060;DHT22;30799;49.060;9.312;2023-02-28T17:54:54;18.70;61.20
45060;DHT22;30799;49.060;9.312;2023-02-28T17:57:21;18.70;61.50
45060;DHT22;30799;49.060;9.312;2023-02-28T17:59:48;18.70;62.20
45060;DHT22;30799;49.060;9.312;2023-02-28T18:02:14;18.70;62.20
45060;DHT22;30799;49.060;9.312;2023-02-28T18:04:42;18.70;61.50
45060;DHT22;30799;49.060;9.312;2023-02-28T18:07:11;18.70;65.00
45060;DHT22;30799;49.060;9.312;2023-02-28T18:09:38;18.70;63.70
45060;DHT22;30799;49.060;9.312;2023-02-28T18:12:05;18.70;63.00
45060;DHT22;30799;49.060;9.312;2023-02-28T18:14:31;18.70;63.70
45060;DHT22;30799;49.060;9.312;2023-02-28T18:16:58;18.70;63.40